Fredonia, Tennessee
Current Conditions -  °F | °C
As of 3:02 PM on Sunday 23 Nov 2014 (Local Time) from KCKV Reporting Station
Light Rain Light Rain  
Wind Chill: 58°   Ceiling: 1000
Heat Index: 58°   Visibility: 5mi
Dew Point: 56°   Wind: 16mph
Humidity: 93%   Direction: 130°SE
Pressure: 29.43"   Gusts: NA
Location:  36.4964°N, 87.234°W
Report Text: KCKV 232102Z AUTO 13014KT 5SM -RA BR SCT007 BKN010 OVC019 14/13 A2943 RMK AO2 P0002 T01440133 $
Loading
Personal Weather Stations






























Interactive Weather Map New forecast layout! Learn more

10-Day Weather Forecast

Advertisements
Track Severe Weather on mobile